sensor_id;sensor_type;location;lat;lon;timestamp;P1;durP1;ratioP1;P2;durP2;ratioP2
4873;SDS011;2451;49.970;9.068;2023-06-22T00:02:08;12.68;;;9.07;;
4873;SDS011;2451;49.970;9.068;2023-06-22T00:04:33;11.32;;;8.85;;
4873;SDS011;2451;49.970;9.068;2023-06-22T00:06:59;10.32;;;9.32;;
4873;SDS011;2451;49.970;9.068;2023-06-22T00:09:24;13.60;;;9.75;;
4873;SDS011;2451;49.970;9.068;2023-06-22T00:11:50;13.85;;;9.30;;
4873;SDS011;2451;49.970;9.068;2023-06-22T00:14:15;11.82;;;9.13;;
4873;SDS011;2451;49.970;9.068;2023-06-22T00:16:41;11.45;;;8.88;;
4873;SDS011;2451;49.970;9.068;2023-06-22T00:19:07;11.23;;;8.75;;
4873;SDS011;2451;49.970;9.068;2023-06-22T00:21:35;11.52;;;8.45;;
4873;SDS011;2451;49.970;9.068;2023-06-22T00:24:02;11.30;;;8.38;;
4873;SDS011;2451;49.970;9.068;2023-06-22T00:26:28;10.88;;;8.23;;
4873;SDS011;2451;49.970;9.068;2023-06-22T00:28:54;10.45;;;8.30;;
4873;SDS011;2451;49.970;9.068;2023-06-22T00:31:20;10.68;;;8.07;;
4873;SDS011;2451;49.970;9.068;2023-06-22T00:33:45;10.73;;;8.02;;
4873;SDS011;2451;49.970;9.068;2023-06-22T00:36:11;12.52;;;8.52;;
4873;SDS011;2451;49.970;9.068;2023-06-22T00:38:41;8.85;;;7.43;;
4873;SDS011;2451;49.970;9.068;2023-06-22T00:41:06;11.65;;;8.23;;
4873;SDS011;2451;49.970;9.068;2023-06-22T00:43:32;9.18;;;7.78;;
4873;SDS011;2451;49.970;9.068;2023-06-22T00:45:58;9.75;;;7.72;;
4873;SDS011;2451;49.970;9.068;2023-06-22T00:48:24;9.80;;;7.90;;
4873;SDS011;2451;49.970;9.068;2023-06-22T00:50:50;9.68;;;8.20;;
4873;SDS011;2451;49.970;9.068;2023-06-22T00:53:18;11.45;;;8.32;;
4873;SDS011;2451;49.970;9.068;2023-06-22T00:55:44;9.30;;;8.32;;
4873;SDS011;2451;49.970;9.068;2023-06-22T00:58:16;13.15;;;8.13;;
4873;SDS011;2451;49.970;9.068;2023-06-22T01:00:46;10.98;;;8.43;;
4873;SDS011;2451;49.970;9.068;2023-06-22T01:03:12;10.65;;;8.68;;
4873;SDS011;2451;49.970;9.068;2023-06-22T01:05:39;9.90;;;8.30;;
4873;SDS011;2451;49.970;9.068;2023-06-22T01:08:21;11.07;;;8.45;;
4873;SDS011;2451;49.970;9.068;2023-06-22T01:11:00;9.93;;;8.43;;
4873;SDS011;2451;49.970;9.068;2023-06-22T01:14:20;11.77;;;9.05;;
4873;SDS011;2451;49.970;9.068;2023-06-22T01:16:44;10.68;;;8.63;;
4873;SDS011;2451;49.970;9.068;2023-06-22T01:19:32;11.13;;;9.15;;
4873;SDS011;2451;49.970;9.068;2023-06-22T01:22:04;10.02;;;8.98;;
4873;SDS011;2451;49.970;9.068;2023-06-22T01:29:50;11.13;;;9.95;;
4873;SDS011;2451;49.970;9.068;2023-06-22T01:32:18;10.68;;;9.57;;
4873;SDS011;2451;49.970;9.068;2023-06-22T01:34:45;12.40;;;9.85;;
4873;SDS011;2451;49.970;9.068;2023-06-22T01:37:12;11.40;;;9.80;;
4873;SDS011;2451;49.970;9.068;2023-06-22T01:39:39;12.25;;;10.40;;
4873;SDS011;2451;49.970;9.068;2023-06-22T01:42:06;11.35;;;10.15;;
4873;SDS011;2451;49.970;9.068;2023-06-22T01:44:31;12.05;;;10.50;;
4873;SDS011;2451;49.970;9.068;2023-06-22T01:46:59;13.93;;;10.85;;
4873;SDS011;2451;49.970;9.068;2023-06-22T01:49:24;11.57;;;10.38;;
4873;SDS011;2451;49.970;9.068;2023-06-22T01:51:50;12.73;;;10.60;;
4873;SDS011;2451;49.970;9.068;2023-06-22T01:54:16;12.48;;;11.18;;
4873;SDS011;2451;49.970;9.068;2023-06-22T01:56:41;12.20;;;10.85;;
4873;SDS011;2451;49.970;9.068;2023-06-22T01:59:15;12.00;;;10.80;;
4873;SDS011;2451;49.970;9.068;2023-06-22T02:01:51;13.60;;;11.68;;
4873;SDS011;2451;49.970;9.068;2023-06-22T02:04:26;15.07;;;11.63;;
4873;SDS011;2451;49.970;9.068;2023-06-22T02:06:58;12.45;;;10.65;;
4873;SDS011;2451;49.970;9.068;2023-06-22T02:09:25;14.98;;;11.63;;
4873;SDS011;2451;49.970;9.068;2023-06-22T02:11:54;15.15;;;11.63;;
4873;SDS011;2451;49.970;9.068;2023-06-22T02:14:22;13.48;;;11.23;;
4873;SDS011;2451;49.970;9.068;2023-06-22T02:16:49;15.20;;;11.57;;
4873;SDS011;2451;49.970;9.068;2023-06-22T02:19:16;14.30;;;11.27;;
4873;SDS011;2451;49.970;9.068;2023-06-22T02:21:43;12.95;;;11.05;;
4873;SDS011;2451;49.970;9.068;2023-06-22T02:24:10;13.77;;;11.70;;
4873;SDS011;2451;49.970;9.068;2023-06-22T02:26:35;16.23;;;11.57;;
4873;SDS011;2451;49.970;9.068;2023-06-22T02:29:03;13.43;;;10.82;;
4873;SDS011;2451;49.970;9.068;2023-06-22T02:31:29;12.73;;;10.55;;
4873;SDS011;2451;49.970;9.068;2023-06-22T02:33:55;11.63;;;10.43;;
4873;SDS011;2451;49.970;9.068;2023-06-22T02:36:23;12.50;;;10.30;;
4873;SDS011;2451;49.970;9.068;2023-06-22T02:38:49;12.27;;;10.02;;
4873;SDS011;2451;49.970;9.068;2023-06-22T02:41:15;15.77;;;10.57;;
4873;SDS011;2451;49.970;9.068;2023-06-22T02:43:47;11.75;;;10.10;;
4873;SDS011;2451;49.970;9.068;2023-06-22T02:46:13;13.15;;;10.10;;
4873;SDS011;2451;49.970;9.068;2023-06-22T02:48:39;12.55;;;9.90;;
4873;SDS011;2451;49.970;9.068;2023-06-22T02:51:05;11.80;;;9.55;;
4873;SDS011;2451;49.970;9.068;2023-06-22T02:53:31;17.10;;;10.40;;
4873;SDS011;2451;49.970;9.068;2023-06-22T02:55:57;10.63;;;9.40;;
4873;SDS011;2451;49.970;9.068;2023-06-22T02:58:22;12.15;;;9.90;;
4873;SDS011;2451;49.970;9.068;2023-06-22T03:00:49;11.38;;;9.40;;
4873;SDS011;2451;49.970;9.068;2023-06-22T03:03:18;13.48;;;10.13;;
4873;SDS011;2451;49.970;9.068;2023-06-22T03:05:44;11.68;;;9.75;;
4873;SDS011;2451;49.970;9.068;2023-06-22T03:08:10;11.95;;;10.07;;
4873;SDS011;2451;49.970;9.068;2023-06-22T03:10:35;18.30;;;10.18;;
4873;SDS011;2451;49.970;9.068;2023-06-22T03:13:01;12.05;;;10.75;;
4873;SDS011;2451;49.970;9.068;2023-06-22T03:15:26;14.07;;;10.25;;
4873;SDS011;2451;49.970;9.068;2023-06-22T03:17:54;11.40;;;9.93;;
4873;SDS011;2451;49.970;9.068;2023-06-22T03:20:20;11.75;;;10.10;;
4873;SDS011;2451;49.970;9.068;2023-06-22T03:22:45;12.07;;;10.05;;
4873;SDS011;2451;49.970;9.068;2023-06-22T03:25:11;12.32;;;10.60;;
4873;SDS011;2451;49.970;9.068;2023-06-22T03:27:40;12.25;;;10.43;;
4873;SDS011;2451;49.970;9.068;2023-06-22T03:30:07;11.85;;;10.50;;
4873;SDS011;2451;49.970;9.068;2023-06-22T03:32:35;11.93;;;10.60;;
4873;SDS011;2451;49.970;9.068;2023-06-22T03:35:01;12.18;;;10.80;;
4873;SDS011;2451;49.970;9.068;2023-06-22T03:37:27;13.05;;;11.05;;
4873;SDS011;2451;49.970;9.068;2023-06-22T03:39:53;13.18;;;11.27;;
4873;SDS011;2451;49.970;9.068;2023-06-22T03:42:19;15.23;;;11.52;;
4873;SDS011;2451;49.970;9.068;2023-06-22T03:44:45;11.65;;;10.07;;
4873;SDS011;2451;49.970;9.068;2023-06-22T03:47:11;13.63;;;11.38;;
4873;SDS011;2451;49.970;9.068;2023-06-22T03:49:37;14.80;;;11.30;;
4873;SDS011;2451;49.970;9.068;2023-06-22T03:52:03;12.50;;;11.20;;
4873;SDS011;2451;49.970;9.068;2023-06-22T03:54:29;12.30;;;10.90;;
4873;SDS011;2451;49.970;9.068;2023-06-22T03:56:56;13.82;;;11.57;;
4873;SDS011;2451;49.970;9.068;2023-06-22T03:59:22;14.07;;;12.05;;
4873;SDS011;2451;49.970;9.068;2023-06-22T04:01:48;12.45;;;10.57;;
4873;SDS011;2451;49.970;9.068;2023-06-22T04:04:14;12.30;;;11.00;;
4873;SDS011;2451;49.970;9.068;2023-06-22T04:06:39;13.35;;;11.40;;
4873;SDS011;2451;49.970;9.068;2023-06-22T04:09:05;13.65;;;11.57;;
4873;SDS011;2451;49.970;9.068;2023-06-22T04:11:31;13.68;;;10.88;;
4873;SDS011;2451;49.970;9.068;2023-06-22T04:13:57;12.30;;;10.27;;
4873;SDS011;2451;49.970;9.068;2023-06-22T04:16:22;13.63;;;10.50;;
4873;SDS011;2451;49.970;9.068;2023-06-22T04:18:48;13.38;;;10.90;;
4873;SDS011;2451;49.970;9.068;2023-06-22T04:21:13;12.65;;;11.35;;
4873;SDS011;2451;49.970;9.068;2023-06-22T04:23:39;11.98;;;10.77;;
4873;SDS011;2451;49.970;9.068;2023-06-22T04:26:04;12.68;;;11.27;;
4873;SDS011;2451;49.970;9.068;2023-06-22T04:28:30;12.85;;;11.55;;
4873;SDS011;2451;49.970;9.068;2023-06-22T04:31:00;12.63;;;10.70;;
4873;SDS011;2451;49.970;9.068;2023-06-22T04:33:26;13.40;;;11.40;;
4873;SDS011;2451;49.970;9.068;2023-06-22T04:35:52;14.88;;;12.38;;
4873;SDS011;2451;49.970;9.068;2023-06-22T04:38:18;13.52;;;11.85;;
4873;SDS011;2451;49.970;9.068;2023-06-22T04:40:46;14.27;;;11.50;;
4873;SDS011;2451;49.970;9.068;2023-06-22T04:43:12;14.45;;;12.18;;
4873;SDS011;2451;49.970;9.068;2023-06-22T04:45:37;14.60;;;11.98;;
4873;SDS011;2451;49.970;9.068;2023-06-22T04:48:03;13.90;;;11.68;;
4873;SDS011;2451;49.970;9.068;2023-06-22T04:50:29;15.93;;;12.25;;
4873;SDS011;2451;49.970;9.068;2023-06-22T04:52:55;18.15;;;11.48;;
4873;SDS011;2451;49.970;9.068;2023-06-22T04:55:20;15.70;;;11.57;;
4873;SDS011;2451;49.970;9.068;2023-06-22T04:57:46;12.65;;;11.23;;
4873;SDS011;2451;49.970;9.068;2023-06-22T05:00:14;14.43;;;11.75;;
4873;SDS011;2451;49.970;9.068;2023-06-22T05:02:44;13.88;;;11.07;;
4873;SDS011;2451;49.970;9.068;2023-06-22T05:05:11;13.45;;;11.25;;
4873;SDS011;2451;49.970;9.068;2023-06-22T05:07:43;14.05;;;11.15;;
4873;SDS011;2451;49.970;9.068;2023-06-22T05:10:17;12.27;;;10.98;;
4873;SDS011;2451;49.970;9.068;2023-06-22T05:12:44;13.85;;;11.30;;
4873;SDS011;2451;49.970;9.068;2023-06-22T05:15:09;14.35;;;11.00;;
4873;SDS011;2451;49.970;9.068;2023-06-22T05:17:35;11.88;;;10.35;;
4873;SDS011;2451;49.970;9.068;2023-06-22T05:20:02;19.52;;;10.45;;
4873;SDS011;2451;49.970;9.068;2023-06-22T05:22:31;16.00;;;10.02;;
4873;SDS011;2451;49.970;9.068;2023-06-22T05:24:56;15.85;;;9.25;;
4873;SDS011;2451;49.970;9.068;2023-06-22T05:27:22;11.45;;;9.38;;
4873;SDS011;2451;49.970;9.068;2023-06-22T05:29:47;16.75;;;10.65;;
4873;SDS011;2451;49.970;9.068;2023-06-22T05:32:13;11.52;;;9.35;;
4873;SDS011;2451;49.970;9.068;2023-06-22T05:34:38;12.75;;;9.20;;
4873;SDS011;2451;49.970;9.068;2023-06-22T05:37:05;12.15;;;9.07;;
4873;SDS011;2451;49.970;9.068;2023-06-22T05:39:31;13.38;;;9.20;;
4873;SDS011;2451;49.970;9.068;2023-06-22T05:41:56;12.57;;;8.98;;
4873;SDS011;2451;49.970;9.068;2023-06-22T05:44:22;11.82;;;8.90;;
4873;SDS011;2451;49.970;9.068;2023-06-22T05:46:47;13.43;;;8.80;;
4873;SDS011;2451;49.970;9.068;2023-06-22T05:49:13;11.38;;;9.02;;
4873;SDS011;2451;49.970;9.068;2023-06-22T05:51:39;10.18;;;9.00;;
4873;SDS011;2451;49.970;9.068;2023-06-22T05:54:06;10.60;;;8.85;;
4873;SDS011;2451;49.970;9.068;2023-06-22T05:56:33;14.00;;;9.43;;
4873;SDS011;2451;49.970;9.068;2023-06-22T05:58:58;12.82;;;9.00;;
4873;SDS011;2451;49.970;9.068;2023-06-22T06:01:24;13.27;;;8.98;;
4873;SDS011;2451;49.970;9.068;2023-06-22T06:03:50;13.18;;;9.30;;
4873;SDS011;2451;49.970;9.068;2023-06-22T06:06:17;10.52;;;9.35;;
4873;SDS011;2451;49.970;9.068;2023-06-22T06:08:43;10.80;;;9.68;;
4873;SDS011;2451;49.970;9.068;2023-06-22T06:11:08;12.65;;;8.98;;
4873;SDS011;2451;49.970;9.068;2023-06-22T06:13:34;11.40;;;9.18;;
4873;SDS011;2451;49.970;9.068;2023-06-22T06:15:59;10.38;;;8.55;;
4873;SDS011;2451;49.970;9.068;2023-06-22T06:18:25;12.75;;;9.02;;
4873;SDS011;2451;49.970;9.068;2023-06-22T06:20:51;10.25;;;8.93;;
4873;SDS011;2451;49.970;9.068;2023-06-22T06:23:16;12.27;;;9.48;;
4873;SDS011;2451;49.970;9.068;2023-06-22T06:25:42;11.02;;;9.05;;
4873;SDS011;2451;49.970;9.068;2023-06-22T06:28:08;9.68;;;8.68;;
4873;SDS011;2451;49.970;9.068;2023-06-22T06:30:34;10.38;;;8.98;;
4873;SDS011;2451;49.970;9.068;2023-06-22T06:33:02;14.70;;;9.23;;
4873;SDS011;2451;49.970;9.068;2023-06-22T06:35:27;13.70;;;9.20;;
4873;SDS011;2451;49.970;9.068;2023-06-22T06:37:53;10.80;;;9.70;;
4873;SDS011;2451;49.970;9.068;2023-06-22T06:40:19;12.50;;;9.30;;
4873;SDS011;2451;49.970;9.068;2023-06-22T06:42:48;12.52;;;9.13;;
4873;SDS011;2451;49.970;9.068;2023-06-22T06:45:18;12.18;;;9.05;;
4873;SDS011;2451;49.970;9.068;2023-06-22T06:47:45;14.50;;;8.80;;
4873;SDS011;2451;49.970;9.068;2023-06-22T06:50:11;11.98;;;9.35;;
4873;SDS011;2451;49.970;9.068;2023-06-22T06:52:37;11.27;;;9.48;;
4873;SDS011;2451;49.970;9.068;2023-06-22T06:55:03;11.18;;;9.70;;
4873;SDS011;2451;49.970;9.068;2023-06-22T06:57:30;11.70;;;9.57;;
4873;SDS011;2451;49.970;9.068;2023-06-22T06:59:56;10.00;;;9.00;;
4873;SDS011;2451;49.970;9.068;2023-06-22T07:02:22;9.93;;;8.88;;
4873;SDS011;2451;49.970;9.068;2023-06-22T07:04:48;11.90;;;9.05;;
4873;SDS011;2451;49.970;9.068;2023-06-22T07:07:14;10.43;;;9.32;;
4873;SDS011;2451;49.970;9.068;2023-06-22T07:09:39;14.95;;;8.77;;
4873;SDS011;2451;49.970;9.068;2023-06-22T07:12:05;10.90;;;9.20;;
4873;SDS011;2451;49.970;9.068;2023-06-22T07:14:31;10.43;;;8.68;;
4873;SDS011;2451;49.970;9.068;2023-06-22T07:16:57;12.60;;;8.70;;
4873;SDS011;2451;49.970;9.068;2023-06-22T07:19:26;11.23;;;8.95;;
4873;SDS011;2451;49.970;9.068;2023-06-22T07:21:52;10.98;;;9.00;;
4873;SDS011;2451;49.970;9.068;2023-06-22T07:24:19;9.85;;;8.85;;
4873;SDS011;2451;49.970;9.068;2023-06-22T07:26:46;12.00;;;8.93;;
4873;SDS011;2451;49.970;9.068;2023-06-22T07:29:16;11.05;;;8.82;;
4873;SDS011;2451;49.970;9.068;2023-06-22T07:31:42;9.30;;;8.40;;
4873;SDS011;2451;49.970;9.068;2023-06-22T07:34:08;12.30;;;8.82;;
4873;SDS011;2451;49.970;9.068;2023-06-22T07:36:33;10.30;;;9.30;;
4873;SDS011;2451;49.970;9.068;2023-06-22T07:39:00;11.88;;;8.40;;
4873;SDS011;2451;49.970;9.068;2023-06-22T07:41:29;9.07;;;8.13;;
4873;SDS011;2451;49.970;9.068;2023-06-22T07:43:55;12.75;;;8.85;;
4873;SDS011;2451;49.970;9.068;2023-06-22T07:46:21;10.15;;;8.00;;
4873;SDS011;2451;49.970;9.068;2023-06-22T07:48:47;10.20;;;8.25;;
4873;SDS011;2451;49.970;9.068;2023-06-22T07:51:13;10.73;;;9.10;;
4873;SDS011;2451;49.970;9.068;2023-06-22T07:53:40;11.38;;;8.48;;
4873;SDS011;2451;49.970;9.068;2023-06-22T07:56:06;11.52;;;8.88;;
4873;SDS011;2451;49.970;9.068;2023-06-22T07:58:34;10.48;;;8.13;;
4873;SDS011;2451;49.970;9.068;2023-06-22T08:01:00;12.00;;;8.27;;
4873;SDS011;2451;49.970;9.068;2023-06-22T08:03:26;10.27;;;7.95;;
4873;SDS011;2451;49.970;9.068;2023-06-22T08:05:51;9.90;;;8.50;;
4873;SDS011;2451;49.970;9.068;2023-06-22T08:08:17;10.27;;;7.90;;
4873;SDS011;2451;49.970;9.068;2023-06-22T08:10:42;9.95;;;8.25;;
4873;SDS011;2451;49.970;9.068;2023-06-22T08:13:08;11.13;;;8.50;;
4873;SDS011;2451;49.970;9.068;2023-06-22T08:15:35;9.48;;;7.88;;
4873;SDS011;2451;49.970;9.068;2023-06-22T08:18:00;10.43;;;7.97;;
4873;SDS011;2451;49.970;9.068;2023-06-22T08:20:26;9.45;;;7.82;;
4873;SDS011;2451;49.970;9.068;2023-06-22T08:22:52;10.60;;;7.43;;
4873;SDS011;2451;49.970;9.068;2023-06-22T08:25:19;9.15;;;7.72;;
4873;SDS011;2451;49.970;9.068;2023-06-22T08:27:46;10.88;;;7.88;;
4873;SDS011;2451;49.970;9.068;2023-06-22T08:30:15;11.45;;;7.30;;
4873;SDS011;2451;49.970;9.068;2023-06-22T08:32:41;8.43;;;7.63;;
4873;SDS011;2451;49.970;9.068;2023-06-22T08:35:07;8.80;;;7.55;;
4873;SDS011;2451;49.970;9.068;2023-06-22T08:37:34;10.85;;;7.60;;
4873;SDS011;2451;49.970;9.068;2023-06-22T08:40:00;9.32;;;7.55;;
4873;SDS011;2451;49.970;9.068;2023-06-22T08:42:29;10.18;;;7.28;;
4873;SDS011;2451;49.970;9.068;2023-06-22T08:44:55;8.27;;;7.13;;
4873;SDS011;2451;49.970;9.068;2023-06-22T08:47:20;9.45;;;7.55;;
4873;SDS011;2451;49.970;9.068;2023-06-22T08:49:46;8.85;;;7.60;;
4873;SDS011;2451;49.970;9.068;2023-06-22T08:52:12;10.27;;;7.10;;
4873;SDS011;2451;49.970;9.068;2023-06-22T08:54:38;11.50;;;7.25;;
4873;SDS011;2451;49.970;9.068;2023-06-22T08:57:03;8.15;;;6.82;;
4873;SDS011;2451;49.970;9.068;2023-06-22T08:59:29;8.75;;;7.43;;
4873;SDS011;2451;49.970;9.068;2023-06-22T09:01:55;9.85;;;7.28;;
4873;SDS011;2451;49.970;9.068;2023-06-22T09:04:21;8.60;;;6.93;;
4873;SDS011;2451;49.970;9.068;2023-06-22T09:06:47;10.02;;;6.90;;
4873;SDS011;2451;49.970;9.068;2023-06-22T09:09:13;10.07;;;7.18;;
4873;SDS011;2451;49.970;9.068;2023-06-22T09:11:39;8.23;;;6.93;;
4873;SDS011;2451;49.970;9.068;2023-06-22T09:14:06;9.82;;;7.07;;
4873;SDS011;2451;49.970;9.068;2023-06-22T09:16:33;9.40;;;7.78;;
4873;SDS011;2451;49.970;9.068;2023-06-22T09:18:59;9.35;;;7.10;;
4873;SDS011;2451;49.970;9.068;2023-06-22T09:21:25;8.15;;;7.22;;
4873;SDS011;2451;49.970;9.068;2023-06-22T09:23:50;10.00;;;7.60;;
4873;SDS011;2451;49.970;9.068;2023-06-22T09:26:17;9.63;;;7.65;;
4873;SDS011;2451;49.970;9.068;2023-06-22T09:28:43;8.88;;;6.90;;
4873;SDS011;2451;49.970;9.068;2023-06-22T09:31:08;10.95;;;7.32;;
4873;SDS011;2451;49.970;9.068;2023-06-22T09:33:35;10.73;;;7.28;;
4873;SDS011;2451;49.970;9.068;2023-06-22T09:36:00;8.90;;;7.40;;
4873;SDS011;2451;49.970;9.068;2023-06-22T09:38:26;10.00;;;7.80;;
4873;SDS011;2451;49.970;9.068;2023-06-22T09:40:52;10.38;;;7.38;;
4873;SDS011;2451;49.970;9.068;2023-06-22T09:43:17;11.27;;;7.60;;
4873;SDS011;2451;49.970;9.068;2023-06-22T09:45:43;11.98;;;7.72;;
4873;SDS011;2451;49.970;9.068;2023-06-22T09:48:08;10.15;;;8.15;;
4873;SDS011;2451;49.970;9.068;2023-06-22T09:50:37;12.95;;;7.75;;
4873;SDS011;2451;49.970;9.068;2023-06-22T09:53:02;9.60;;;7.68;;
4873;SDS011;2451;49.970;9.068;2023-06-22T09:55:28;10.65;;;7.15;;
4873;SDS011;2451;49.970;9.068;2023-06-22T09:57:53;11.15;;;7.53;;
4873;SDS011;2451;49.970;9.068;2023-06-22T10:00:20;10.73;;;7.30;;
4873;SDS011;2451;49.970;9.068;2023-06-22T10:02:47;11.32;;;7.43;;
4873;SDS011;2451;49.970;9.068;2023-06-22T10:05:12;11.27;;;7.25;;
4873;SDS011;2451;49.970;9.068;2023-06-22T10:07:39;9.52;;;7.63;;
4873;SDS011;2451;49.970;9.068;2023-06-22T10:10:07;9.77;;;7.75;;
4873;SDS011;2451;49.970;9.068;2023-06-22T10:12:34;10.95;;;7.32;;
4873;SDS011;2451;49.970;9.068;2023-06-22T10:14:59;9.38;;;6.78;;
4873;SDS011;2451;49.970;9.068;2023-06-22T10:17:25;9.43;;;6.55;;
4873;SDS011;2451;49.970;9.068;2023-06-22T10:19:50;9.15;;;6.38;;
4873;SDS011;2451;49.970;9.068;2023-06-22T10:22:16;9.73;;;6.80;;
4873;SDS011;2451;49.970;9.068;2023-06-22T10:24:41;8.25;;;6.70;;
4873;SDS011;2451;49.970;9.068;2023-06-22T10:27:11;10.68;;;6.50;;
4873;SDS011;2451;49.970;9.068;2023-06-22T10:29:37;7.95;;;6.22;;
4873;SDS011;2451;49.970;9.068;2023-06-22T10:32:06;9.35;;;6.65;;
4873;SDS011;2451;49.970;9.068;2023-06-22T10:34:32;10.18;;;6.40;;
4873;SDS011;2451;49.970;9.068;2023-06-22T10:36:58;9.32;;;6.53;;
4873;SDS011;2451;49.970;9.068;2023-06-22T10:39:24;10.30;;;6.82;;
4873;SDS011;2451;49.970;9.068;2023-06-22T10:41:49;8.95;;;6.70;;
4873;SDS011;2451;49.970;9.068;2023-06-22T10:44:15;8.10;;;6.30;;
4873;SDS011;2451;49.970;9.068;2023-06-22T10:46:42;11.60;;;7.00;;
4873;SDS011;2451;49.970;9.068;2023-06-22T10:49:08;9.18;;;6.85;;
4873;SDS011;2451;49.970;9.068;2023-06-22T10:51:33;8.40;;;6.25;;
4873;SDS011;2451;49.970;9.068;2023-06-22T10:53:59;10.27;;;7.00;;
4873;SDS011;2451;49.970;9.068;2023-06-22T10:56:24;9.40;;;6.60;;
4873;SDS011;2451;49.970;9.068;2023-06-22T10:58:50;10.63;;;6.72;;
4873;SDS011;2451;49.970;9.068;2023-06-22T11:01:15;8.90;;;7.00;;
4873;SDS011;2451;49.970;9.068;2023-06-22T11:03:41;11.77;;;6.93;;
4873;SDS011;2451;49.970;9.068;2023-06-22T11:06:06;10.32;;;6.55;;
4873;SDS011;2451;49.970;9.068;2023-06-22T11:08:32;9.63;;;6.93;;
4873;SDS011;2451;49.970;9.068;2023-06-22T11:10:57;11.00;;;7.18;;
4873;SDS011;2451;49.970;9.068;2023-06-22T11:13:23;12.43;;;6.38;;
4873;SDS011;2451;49.970;9.068;2023-06-22T11:15:50;10.00;;;6.95;;
4873;SDS011;2451;49.970;9.068;2023-06-22T11:18:15;9.50;;;7.45;;
4873;SDS011;2451;49.970;9.068;2023-06-22T11:20:41;12.38;;;7.15;;
4873;SDS011;2451;49.970;9.068;2023-06-22T11:23:07;10.30;;;7.30;;
4873;SDS011;2451;49.970;9.068;2023-06-22T11:25:33;11.20;;;7.53;;
4873;SDS011;2451;49.970;9.068;2023-06-22T11:28:01;9.18;;;7.13;;
4873;SDS011;2451;49.970;9.068;2023-06-22T11:30:27;13.63;;;7.03;;
4873;SDS011;2451;49.970;9.068;2023-06-22T11:32:53;10.93;;;6.97;;
4873;SDS011;2451;49.970;9.068;2023-06-22T11:35:18;14.32;;;8.18;;
4873;SDS011;2451;49.970;9.068;2023-06-22T11:37:44;11.63;;;7.45;;
4873;SDS011;2451;49.970;9.068;2023-06-22T11:40:10;13.77;;;8.10;;
4873;SDS011;2451;49.970;9.068;2023-06-22T11:42:36;11.10;;;7.00;;
4873;SDS011;2451;49.970;9.068;2023-06-22T11:45:01;10.32;;;7.50;;
4873;SDS011;2451;49.970;9.068;2023-06-22T11:47:29;10.68;;;7.90;;
4873;SDS011;2451;49.970;9.068;2023-06-22T11:49:55;11.40;;;7.68;;
4873;SDS011;2451;49.970;9.068;2023-06-22T11:52:21;12.63;;;7.85;;
4873;SDS011;2451;49.970;9.068;2023-06-22T11:54:46;13.15;;;7.65;;
4873;SDS011;2451;49.970;9.068;2023-06-22T11:57:12;12.80;;;7.72;;
4873;SDS011;2451;49.970;9.068;2023-06-22T11:59:37;10.05;;;8.20;;
4873;SDS011;2451;49.970;9.068;2023-06-22T12:02:03;13.27;;;7.90;;
4873;SDS011;2451;49.970;9.068;2023-06-22T12:04:30;13.95;;;8.25;;
4873;SDS011;2451;49.970;9.068;2023-06-22T12:06:56;12.43;;;8.73;;
4873;SDS011;2451;49.970;9.068;2023-06-22T12:09:21;11.70;;;7.85;;
4873;SDS011;2451;49.970;9.068;2023-06-22T12:11:47;11.45;;;7.55;;
4873;SDS011;2451;49.970;9.068;2023-06-22T12:14:12;13.60;;;8.10;;
4873;SDS011;2451;49.970;9.068;2023-06-22T12:16:38;11.20;;;8.02;;
4873;SDS011;2451;49.970;9.068;2023-06-22T12:19:03;8.57;;;7.60;;
4873;SDS011;2451;49.970;9.068;2023-06-22T12:21:29;12.48;;;7.95;;
4873;SDS011;2451;49.970;9.068;2023-06-22T12:23:54;11.00;;;8.13;;
4873;SDS011;2451;49.970;9.068;2023-06-22T12:26:20;12.75;;;7.68;;
4873;SDS011;2451;49.970;9.068;2023-06-22T12:28:47;10.25;;;7.20;;
4873;SDS011;2451;49.970;9.068;2023-06-22T12:31:12;13.07;;;6.88;;
4873;SDS011;2451;49.970;9.068;2023-06-22T12:33:39;11.82;;;7.47;;
4873;SDS011;2451;49.970;9.068;2023-06-22T12:36:04;9.65;;;7.20;;
4873;SDS011;2451;49.970;9.068;2023-06-22T12:38:30;11.07;;;7.13;;
4873;SDS011;2451;49.970;9.068;2023-06-22T12:40:55;11.27;;;6.95;;
4873;SDS011;2451;49.970;9.068;2023-06-22T12:43:21;15.23;;;7.40;;
4873;SDS011;2451;49.970;9.068;2023-06-22T12:45:46;10.07;;;6.85;;
4873;SDS011;2451;49.970;9.068;2023-06-22T12:48:12;10.23;;;7.05;;
4873;SDS011;2451;49.970;9.068;2023-06-22T12:50:38;11.20;;;7.32;;
4873;SDS011;2451;49.970;9.068;2023-06-22T12:53:04;10.23;;;6.85;;
4873;SDS011;2451;49.970;9.068;2023-06-22T12:55:31;7.85;;;6.70;;
4873;SDS011;2451;49.970;9.068;2023-06-22T12:57:56;12.45;;;7.00;;
4873;SDS011;2451;49.970;9.068;2023-06-22T13:00:22;10.70;;;6.63;;
4873;SDS011;2451;49.970;9.068;2023-06-22T13:02:48;11.85;;;7.38;;
4873;SDS011;2451;49.970;9.068;2023-06-22T13:05:13;11.10;;;6.97;;
4873;SDS011;2451;49.970;9.068;2023-06-22T13:07:39;11.93;;;6.15;;
4873;SDS011;2451;49.970;9.068;2023-06-22T13:10:05;9.82;;;6.45;;
4873;SDS011;2451;49.970;9.068;2023-06-22T13:12:31;11.63;;;6.07;;
4873;SDS011;2451;49.970;9.068;2023-06-22T13:14:57;10.32;;;5.90;;
4873;SDS011;2451;49.970;9.068;2023-06-22T13:17:22;12.07;;;5.40;;
4873;SDS011;2451;49.970;9.068;2023-06-22T13:19:48;15.77;;;6.18;;
4873;SDS011;2451;49.970;9.068;2023-06-22T13:24:54;10.90;;;5.47;;
4873;SDS011;2451;49.970;9.068;2023-06-22T13:27:20;13.38;;;5.82;;
4873;SDS011;2451;49.970;9.068;2023-06-22T13:29:45;11.23;;;5.47;;
4873;SDS011;2451;49.970;9.068;2023-06-22T13:32:11;9.50;;;5.40;;
4873;SDS011;2451;49.970;9.068;2023-06-22T13:34:36;10.43;;;5.75;;
4873;SDS011;2451;49.970;9.068;2023-06-22T13:37:02;9.77;;;5.38;;
4873;SDS011;2451;49.970;9.068;2023-06-22T13:39:27;9.32;;;4.85;;
4873;SDS011;2451;49.970;9.068;2023-06-22T13:41:53;10.32;;;5.60;;
4873;SDS011;2451;49.970;9.068;2023-06-22T13:44:18;11.20;;;5.55;;
4873;SDS011;2451;49.970;9.068;2023-06-22T13:46:44;9.75;;;5.60;;
4873;SDS011;2451;49.970;9.068;2023-06-22T13:49:10;11.43;;;5.07;;
4873;SDS011;2451;49.970;9.068;2023-06-22T13:51:36;9.05;;;5.20;;
4873;SDS011;2451;49.970;9.068;2023-06-22T13:54:01;11.70;;;5.53;;
4873;SDS011;2451;49.970;9.068;2023-06-22T13:56:27;10.18;;;5.20;;
4873;SDS011;2451;49.970;9.068;2023-06-22T13:58:52;9.80;;;5.50;;
4873;SDS011;2451;49.970;9.068;2023-06-22T14:01:18;10.57;;;5.28;;
4873;SDS011;2451;49.970;9.068;2023-06-22T14:03:43;10.27;;;5.47;;
4873;SDS011;2451;49.970;9.068;2023-06-22T14:06:11;10.60;;;5.45;;
4873;SDS011;2451;49.970;9.068;2023-06-22T14:08:37;9.02;;;5.28;;
4873;SDS011;2451;49.970;9.068;2023-06-22T14:11:03;11.55;;;5.28;;
4873;SDS011;2451;49.970;9.068;2023-06-22T14:13:28;7.57;;;4.90;;
4873;SDS011;2451;49.970;9.068;2023-06-22T14:15:54;11.93;;;5.13;;
4873;SDS011;2451;49.970;9.068;2023-06-22T14:18:19;11.48;;;5.50;;
4873;SDS011;2451;49.970;9.068;2023-06-22T14:20:47;10.35;;;5.15;;
4873;SDS011;2451;49.970;9.068;2023-06-22T14:23:13;11.30;;;5.35;;
4873;SDS011;2451;49.970;9.068;2023-06-22T14:25:39;9.55;;;5.00;;
4873;SDS011;2451;49.970;9.068;2023-06-22T14:28:05;10.93;;;5.22;;
4873;SDS011;2451;49.970;9.068;2023-06-22T14:30:31;11.00;;;5.00;;
4873;SDS011;2451;49.970;9.068;2023-06-22T14:32:56;10.52;;;5.32;;
4873;SDS011;2451;49.970;9.068;2023-06-22T14:35:22;10.55;;;5.20;;
4873;SDS011;2451;49.970;9.068;2023-06-22T14:37:49;11.90;;;5.15;;
4873;SDS011;2451;49.970;9.068;2023-06-22T14:40:15;9.32;;;4.68;;
4873;SDS011;2451;49.970;9.068;2023-06-22T14:42:40;9.85;;;5.30;;
4873;SDS011;2451;49.970;9.068;2023-06-22T14:45:06;12.10;;;5.15;;
4873;SDS011;2451;49.970;9.068;2023-06-22T14:47:32;12.07;;;5.57;;
4873;SDS011;2451;49.970;9.068;2023-06-22T14:49:57;9.55;;;5.03;;
4873;SDS011;2451;49.970;9.068;2023-06-22T14:52:25;10.50;;;5.32;;
4873;SDS011;2451;49.970;9.068;2023-06-22T14:54:50;11.93;;;5.03;;
4873;SDS011;2451;49.970;9.068;2023-06-22T14:57:17;11.60;;;5.35;;
4873;SDS011;2451;49.970;9.068;2023-06-22T14:59:44;11.30;;;5.18;;
4873;SDS011;2451;49.970;9.068;2023-06-22T15:02:13;12.02;;;5.32;;
4873;SDS011;2451;49.970;9.068;2023-06-22T15:04:39;12.13;;;5.45;;